Time;durP1;ratioP1;P1;durP2;ratioP2;P2;SDS_P1;SDS_P2;PMS_P1;PMS_P2;Temp;Humidity;BMP_temperature;BMP_pressure;BME280_temperature;BME280_humidity;BME280_pressure;Samples;Min_cycle;Max_cycle;Signal;HPM_P1;HPM_P2
2023/10/24 00:01:11;;;;;;;28.63;14.45;;;;;;;17.69;73.52;99910.88;5102822;28;20081;-65
2023/10/24 00:03:37;;;;;;;37.05;13.75;;;;;;;17.64;73.74;99908.75;5117568;28;20239;-64
2023/10/24 00:06:03;;;;;;;34.08;14.13;;;;;;;17.65;74.79;99907.72;5105904;28;20020;-65
2023/10/24 00:08:29;;;;;;;34.10;13.95;;;;;;;17.62;73.05;99913.50;5102524;28;20038;-65
2023/10/24 00:11:05;;;;;;;35.45;12.90;;;;;;;17.67;71.00;99903.03;5111216;28;20058;-64
2023/10/24 00:13:30;;;;;;;28.17;12.95;;;;;;;17.64;69.85;99902.56;5102491;28;20036;-65
2023/10/24 00:15:57;;;;;;;34.58;13.15;;;;;;;17.65;69.54;99901.56;5103134;28;20050;-65
2023/10/24 00:18:24;;;;;;;34.58;12.73;;;;;;;17.54;69.96;99911.00;5109636;28;20108;-64
2023/10/24 00:20:50;;;;;;;34.92;14.07;;;;;;;17.46;70.16;99909.34;5102741;28;20131;-64
2023/10/24 00:23:15;;;;;;;35.13;13.07;;;;;;;17.50;71.67;99901.72;5101919;28;20016;-65
2023/10/24 00:25:41;;;;;;;30.10;13.85;;;;;;;17.52;72.81;99905.03;5102253;28;20043;-64
2023/10/24 00:28:06;;;;;;;32.17;15.18;;;;;;;17.55;74.11;99893.91;5101818;28;20036;-64
2023/10/24 00:30:32;;;;;;;35.00;14.02;;;;;;;17.44;71.94;99895.34;5101723;28;20056;-65
2023/10/24 00:32:57;;;;;;;33.42;14.05;;;;;;;17.42;70.98;99891.22;5101226;28;20086;-65
2023/10/24 00:35:22;;;;;;;30.65;13.50;;;;;;;17.38;72.44;99892.66;5100907;28;20109;-64
2023/10/24 00:37:48;;;;;;;33.75;13.73;;;;;;;17.45;72.45;99893.47;5106746;28;20027;-64
2023/10/24 00:40:13;;;;;;;24.30;13.73;;;;;;;17.47;72.93;99891.44;5110509;28;20040;-64
2023/10/24 00:42:38;;;;;;;30.05;14.70;;;;;;;17.51;73.76;99890.81;5104254;28;20058;-64
2023/10/24 00:45:05;;;;;;;32.78;15.55;;;;;;;17.51;74.50;99885.47;5101244;28;20040;-65
2023/10/24 00:47:31;;;;;;;33.15;15.25;;;;;;;17.43;73.82;99885.66;5101766;28;20038;-64
2023/10/24 00:49:57;;;;;;;35.00;15.93;;;;;;;17.40;74.12;99891.41;5100600;28;20039;-65
2023/10/24 00:52:23;;;;;;;32.25;15.23;;;;;;;17.39;73.76;99895.13;5109859;28;20055;-64
2023/10/24 00:54:48;;;;;;;29.20;14.70;;;;;;;17.32;73.83;99888.09;5101340;28;20039;-64
2023/10/24 00:57:14;;;;;;;31.27;13.45;;;;;;;17.37;71.08;99883.78;5101794;28;20100;-64
2023/10/24 00:59:41;;;;;;;27.08;12.85;;;;;;;17.09;69.25;99893.78;5101200;28;20322;-64
2023/10/24 01:02:08;;;;;;;27.83;12.40;;;;;;;17.14;71.90;99891.34;5100694;28;20345;-64
2023/10/24 01:04:34;;;;;;;31.67;12.50;;;;;;;17.15;71.13;99895.66;5100869;28;20081;-64
2023/10/24 01:06:59;;;;;;;26.73;12.43;;;;;;;17.11;70.58;99897.91;5102747;28;20118;-64
2023/10/24 01:09:25;;;;;;;32.33;14.73;;;;;;;17.14;71.79;99889.50;5101018;28;20035;-64
2023/10/24 01:11:53;;;;;;;29.02;13.20;;;;;;;17.20;72.78;99888.69;5100377;28;20120;-64
2023/10/24 01:14:18;;;;;;;30.02;12.45;;;;;;;17.12;71.05;99891.53;5100254;28;20091;-64
2023/10/24 01:16:44;;;;;;;25.70;11.95;;;;;;;17.18;71.94;99884.56;5100849;28;20211;-64
2023/10/24 01:19:11;;;;;;;27.13;12.40;;;;;;;17.15;69.40;99879.63;5100345;28;20031;-64
2023/10/24 01:21:43;;;;;;;28.98;12.30;;;;;;;17.14;68.53;99883.31;5100295;28;20036;-64
2023/10/24 01:24:10;;;;;;;29.02;12.25;;;;;;;17.11;69.75;99886.41;5100942;28;20333;-64
2023/10/24 01:26:35;;;;;;;35.55;13.38;;;;;;;17.04;70.99;99890.91;5100515;28;20043;-64
2023/10/24 01:29:01;;;;;;;33.25;14.95;;;;;;;17.02;72.54;99884.91;5100791;28;20111;-65
2023/10/24 01:31:26;;;;;;;35.58;15.40;;;;;;;16.98;74.04;99892.53;5100777;28;20039;-64
2023/10/24 01:33:52;;;;;;;28.80;12.70;;;;;;;16.67;71.00;99894.84;5100526;28;20043;-63
2023/10/24 01:36:18;;;;;;;31.58;13.48;;;;;;;16.62;72.93;99898.06;5099953;28;20039;-64
2023/10/24 01:38:43;;;;;;;31.13;14.07;;;;;;;16.65;74.84;99900.38;5100393;28;20329;-64
2023/10/24 01:41:08;;;;;;;31.58;13.85;;;;;;;16.71;74.70;99894.25;5102253;28;20046;-64
2023/10/24 01:43:34;;;;;;;32.25;13.98;;;;;;;16.66;71.88;99896.69;5106908;28;20048;-64
2023/10/24 01:45:59;;;;;;;31.48;14.20;;;;;;;16.63;74.69;99890.84;5100620;28;20040;-64
2023/10/24 01:48:25;;;;;;;30.50;13.80;;;;;;;16.67;75.66;99894.84;5100433;28;20039;-64
2023/10/24 01:50:50;;;;;;;30.63;13.88;;;;;;;16.66;75.90;99890.53;5101092;28;20044;-64
2023/10/24 01:53:16;;;;;;;33.03;15.45;;;;;;;16.69;76.09;99887.44;5100931;28;20290;-64
2023/10/24 01:55:42;;;;;;;30.90;15.35;;;;;;;16.69;76.05;99882.94;5100795;28;20145;-64
2023/10/24 01:58:07;;;;;;;36.53;17.27;;;;;;;16.67;76.52;99887.66;5106467;28;20054;-64
2023/10/24 02:00:33;;;;;;;47.70;21.70;;;;;;;16.61;77.24;99878.50;5102788;28;20110;-64
2023/10/24 02:02:58;;;;;;;54.75;25.75;;;;;;;16.52;78.03;99889.56;5100070;28;20040;-64
2023/10/24 02:05:23;;;;;;;57.50;24.08;;;;;;;16.16;81.24;99884.41;5100195;28;20105;-64
2023/10/24 02:07:49;;;;;;;55.65;23.88;;;;;;;16.00;81.80;99888.19;5099928;28;20314;-65
2023/10/24 02:10:14;;;;;;;140.60;75.13;;;;;;;16.14;81.66;99883.75;5100813;28;20338;-64
2023/10/24 02:12:40;;;;;;;157.52;81.18;;;;;;;16.28;81.94;99883.66;5100725;28;20040;-64
2023/10/24 02:15:06;;;;;;;119.53;56.67;;;;;;;16.27;81.67;99887.34;5102367;28;20047;-64
2023/10/24 02:17:31;;;;;;;110.57;52.45;;;;;;;16.37;81.39;99881.66;5104795;28;20323;-64
2023/10/24 02:19:57;;;;;;;98.80;45.15;;;;;;;16.35;81.08;99885.56;5104194;28;20040;-65
2023/10/24 02:22:22;;;;;;;82.45;37.45;;;;;;;16.23;81.01;99885.28;5104499;28;20317;-64
2023/10/24 02:24:48;;;;;;;76.40;30.98;;;;;;;16.29;80.47;99887.16;5111611;28;20080;-64
2023/10/24 02:27:13;;;;;;;57.38;27.50;;;;;;;16.33;80.63;99888.41;5103610;28;20028;-64
2023/10/24 02:29:38;;;;;;;53.58;22.08;;;;;;;16.51;79.87;99888.75;5103657;28;20038;-64
2023/10/24 02:32:05;;;;;;;51.00;21.27;;;;;;;16.57;79.00;99892.47;5104333;28;20040;-64
2023/10/24 02:34:30;;;;;;;48.53;18.58;;;;;;;16.65;78.37;99902.22;5103993;28;20051;-64
2023/10/24 02:36:55;;;;;;;74.57;34.00;;;;;;;16.65;77.46;99905.75;5112128;28;20329;-65
2023/10/24 02:39:21;;;;;;;57.00;21.92;;;;;;;16.64;75.22;99903.19;5103781;28;20032;-64
2023/10/24 02:41:47;;;;;;;56.35;22.40;;;;;;;16.52;74.81;99914.44;5111939;28;20058;-64
2023/10/24 02:44:12;;;;;;;55.83;21.80;;;;;;;16.52;74.65;99914.44;5112451;28;20028;-64
2023/10/24 02:46:38;;;;;;;51.53;21.08;;;;;;;16.57;75.43;99913.84;5103309;28;20043;-64
2023/10/24 02:49:03;;;;;;;40.13;17.73;;;;;;;16.50;76.21;99903.13;5102454;28;20350;-64
2023/10/24 02:51:29;;;;;;;39.40;14.98;;;;;;;16.48;77.23;99912.34;5112312;27;20032;-64
2023/10/24 02:53:54;;;;;;;41.92;16.38;;;;;;;16.59;77.34;99915.31;5103133;28;20026;-64
2023/10/24 02:56:20;;;;;;;47.38;19.08;;;;;;;16.65;76.91;99907.56;5102178;28;20050;-64
2023/10/24 02:58:45;;;;;;;36.80;14.25;;;;;;;16.59;76.74;99912.63;5112850;28;20387;-64
2023/10/24 03:01:11;;;;;;;29.83;14.70;;;;;;;16.56;77.07;99915.69;5102897;28;20032;-64
2023/10/24 03:03:37;;;;;;;39.35;15.63;;;;;;;16.55;76.88;99913.22;5111462;28;20039;-64
2023/10/24 03:06:13;;;;;;;29.25;13.13;;;;;;;16.51;77.89;99904.78;5103742;28;20136;-64
2023/10/24 03:08:39;;;;;;;27.80;11.70;;;;;;;16.42;78.31;99913.97;5112206;28;20055;-65
2023/10/24 03:11:04;;;;;;;23.88;10.77;;;;;;;16.33;78.67;99915.13;5102368;28;20062;-65
2023/10/24 03:13:30;;;;;;;27.60;12.75;;;;;;;16.33;77.52;99907.13;5103461;28;20028;-65
2023/10/24 03:15:55;;;;;;;38.30;18.23;;;;;;;16.24;74.39;99910.97;5102189;28;20086;-65
2023/10/24 03:18:20;;;;;;;40.88;17.27;;;;;;;16.18;75.10;99901.06;5112641;28;20104;-65
2023/10/24 03:20:46;;;;;;;37.90;15.65;;;;;;;16.14;75.39;99910.47;5102844;28;20231;-64
2023/10/24 03:23:11;;;;;;;39.72;15.98;;;;;;;16.11;76.23;99909.03;5103774;28;20028;-65
2023/10/24 03:25:41;;;;;;;44.80;16.77;;;;;;;16.12;76.74;99902.66;5102318;28;20271;-65
2023/10/24 03:28:07;;;;;;;31.63;15.55;;;;;;;16.01;77.41;99907.69;5102740;28;20036;-65
2023/10/24 03:30:32;;;;;;;47.00;15.65;;;;;;;16.09;76.39;99915.56;5102019;28;20257;-63
2023/10/24 03:32:58;;;;;;;34.53;14.35;;;;;;;16.08;76.86;99909.41;5102287;28;20041;-63
2023/10/24 03:35:23;;;;;;;36.85;14.73;;;;;;;15.94;77.78;99908.47;5102176;28;20127;-63
2023/10/24 03:37:49;;;;;;;36.67;14.40;;;;;;;15.79;77.99;99914.91;5102653;28;20024;-63
2023/10/24 03:40:16;;;;;;;48.33;14.98;;;;;;;15.86;77.45;99903.28;5111690;28;20032;-63
2023/10/24 03:42:41;;;;;;;40.70;16.00;;;;;;;16.02;76.78;99920.03;5112131;28;20040;-64
2023/10/24 03:45:07;;;;;;;35.17;12.35;;;;;;;16.10;77.87;99918.06;5102269;28;20349;-64
2023/10/24 03:47:32;;;;;;;31.67;14.13;;;;;;;16.15;76.08;99928.16;5102338;28;20080;-65
2023/10/24 03:49:58;;;;;;;34.97;12.98;;;;;;;16.13;74.69;99922.19;5102137;28;20330;-65
2023/10/24 03:52:23;;;;;;;34.75;12.88;;;;;;;16.06;76.10;99922.13;5102932;28;20035;-64
2023/10/24 03:54:48;;;;;;;29.98;10.80;;;;;;;16.02;75.93;99914.69;5110245;28;20144;-65
2023/10/24 03:57:14;;;;;;;31.50;11.05;;;;;;;16.01;74.84;99919.22;5102087;28;20084;-64
2023/10/24 03:59:39;;;;;;;34.33;10.40;;;;;;;15.98;74.97;99924.94;5102203;28;20271;-63
2023/10/24 04:02:05;;;;;;;35.10;10.77;;;;;;;15.95;74.80;99920.81;5102344;28;20042;-65
2023/10/24 04:04:30;;;;;;;33.30;11.20;;;;;;;15.94;74.64;99921.81;5101572;28;20039;-65
2023/10/24 04:06:56;;;;;;;38.15;12.70;;;;;;;15.96;74.43;99916.28;5106457;28;20039;-65
2023/10/24 04:09:22;;;;;;;35.78;11.07;;;;;;;15.86;76.06;99921.97;5105369;28;20043;-64
2023/10/24 04:11:47;;;;;;;40.45;12.30;;;;;;;15.91;77.19;99921.38;5102133;28;20036;-64
2023/10/24 04:14:12;;;;;;;40.53;14.73;;;;;;;15.80;78.73;99920.06;5101631;28;20046;-63
2023/10/24 04:16:38;;;;;;;36.65;17.52;;;;;;;15.86;79.52;99921.13;5111195;28;20226;-65
2023/10/24 04:19:03;;;;;;;36.42;16.77;;;;;;;15.94;79.48;99929.00;5101412;28;20336;-66
2023/10/24 04:21:29;;;;;;;40.92;17.67;;;;;;;15.96;79.25;99927.81;5101603;28;20031;-65
2023/10/24 04:23:54;;;;;;;81.93;33.35;;;;;;;15.91;79.39;99932.91;5109464;28;20046;-65
2023/10/24 04:26:19;;;;;;;94.57;43.20;;;;;;;15.90;80.42;99938.44;5101889;28;20319;-63
2023/10/24 04:28:45;;;;;;;94.10;42.28;;;;;;;16.01;80.17;99929.06;5102401;28;20035;-64
2023/10/24 04:31:10;;;;;;;81.85;37.72;;;;;;;16.02;79.60;99928.88;5101924;28;20067;-64
2023/10/24 04:33:36;;;;;;;76.82;36.90;;;;;;;16.06;79.35;99934.66;5101565;28;20040;-63
2023/10/24 04:36:01;;;;;;;74.90;33.90;;;;;;;15.91;79.55;99935.56;5101552;28;20051;-63
2023/10/24 04:38:27;;;;;;;63.97;30.23;;;;;;;16.03;79.37;99935.88;5101671;28;20124;-64
2023/10/24 04:40:52;;;;;;;66.18;32.60;;;;;;;16.04;79.11;99940.19;5100840;28;20040;-65
2023/10/24 04:43:18;;;;;;;73.35;32.55;;;;;;;16.05;77.59;99949.03;5110732;28;20113;-64
2023/10/24 04:45:44;;;;;;;65.95;32.53;;;;;;;16.07;77.75;99952.34;5114396;28;20107;-64
2023/10/24 04:48:09;;;;;;;90.15;40.55;;;;;;;16.08;78.74;99948.66;5113965;28;20322;-64
2023/10/24 04:50:40;;;;;;;75.95;36.47;;;;;;;16.07;79.63;99960.34;5114956;28;20039;-64
2023/10/24 04:53:06;;;;;;;67.25;33.30;;;;;;;16.02;80.51;99954.75;5114026;28;20059;-63
2023/10/24 04:55:32;;;;;;;55.65;27.30;;;;;;;16.08;80.22;99954.81;5114366;28;20039;-64
2023/10/24 04:57:57;;;;;;;41.97;18.02;;;;;;;16.06;80.53;99961.38;5113649;28;20282;-65
2023/10/24 05:00:24;;;;;;;33.22;16.50;;;;;;;15.99;80.76;99971.16;5112248;28;20102;-64
2023/10/24 05:02:50;;;;;;;35.35;15.25;;;;;;;16.03;81.06;99980.44;5114702;28;20047;-65
2023/10/24 05:05:16;;;;;;;33.70;14.40;;;;;;;15.99;81.15;99982.69;5113681;28;20221;-65
2023/10/24 05:07:41;;;;;;;30.10;12.63;;;;;;;16.01;81.30;99985.16;5114225;28;20039;-65
2023/10/24 05:10:07;;;;;;;29.17;12.57;;;;;;;16.03;81.52;99991.97;5113806;28;20045;-65
2023/10/24 05:12:33;;;;;;;26.05;11.75;;;;;;;15.92;81.51;100008.50;5103609;28;20329;-65
2023/10/24 05:14:59;;;;;;;31.15;11.88;;;;;;;16.01;81.92;100004.69;5108811;28;20040;-65
2023/10/24 05:17:24;;;;;;;30.15;13.13;;;;;;;16.09;81.32;100011.75;5114812;28;20068;-65
2023/10/24 05:19:49;;;;;;;27.85;12.63;;;;;;;16.11;81.25;100015.03;5114031;28;20024;-65
2023/10/24 05:22:15;;;;;;;25.30;11.23;;;;;;;16.12;80.87;100017.53;5113793;28;20024;-66
2023/10/24 05:24:40;;;;;;;23.88;11.73;;;;;;;16.18;81.03;100015.94;5114279;28;20046;-65
2023/10/24 05:27:06;;;;;;;20.63;9.65;;;;;;;16.21;80.65;100015.56;5114578;28;20040;-65
2023/10/24 05:29:35;;;;;;;22.08;10.07;;;;;;;16.25;80.41;100030.19;5113960;28;20059;-65
2023/10/24 05:32:00;;;;;;;21.17;9.25;;;;;;;16.21;80.54;100023.56;5113741;28;20047;-65
2023/10/24 05:34:27;;;;;;;20.80;9.52;;;;;;;16.28;80.81;100030.63;5114420;28;20263;-66
2023/10/24 05:36:53;;;;;;;26.40;9.38;;;;;;;16.32;80.39;100035.59;5113812;28;20028;-66
2023/10/24 05:39:19;;;;;;;15.55;8.10;;;;;;;16.31;80.55;100033.94;5114043;28;20042;-65
2023/10/24 05:41:45;;;;;;;21.60;9.02;;;;;;;16.35;80.69;100041.38;5114066;28;20243;-66
2023/10/24 05:44:11;;;;;;;26.60;8.60;;;;;;;16.40;80.77;100049.63;5115386;28;20043;-65
2023/10/24 05:46:36;;;;;;;24.00;8.32;;;;;;;16.43;80.87;100051.09;5113841;28;20042;-66
2023/10/24 05:49:02;;;;;;;25.77;9.18;;;;;;;16.46;80.84;100056.06;5116191;28;20338;-66
2023/10/24 05:51:29;;;;;;;18.60;8.85;;;;;;;16.49;80.93;100047.66;5118248;28;20343;-66
2023/10/24 05:53:54;;;;;;;18.55;7.97;;;;;;;16.55;80.95;100052.22;5125856;27;20353;-66
2023/10/24 05:56:20;;;;;;;21.70;8.05;;;;;;;16.55;80.68;100050.38;5117140;27;20043;-65
2023/10/24 05:58:45;;;;;;;19.40;8.20;;;;;;;16.58;81.06;100052.66;5118303;28;20035;-65
2023/10/24 06:01:11;;;;;;;20.23;8.88;;;;;;;16.67;81.17;100057.94;5117896;28;20060;-64
2023/10/24 06:03:37;;;;;;;20.63;8.27;;;;;;;16.80;80.35;100058.03;5118731;28;20095;-66
2023/10/24 06:06:02;;;;;;;17.77;9.82;;;;;;;16.96;80.26;100062.25;5118299;28;20051;-65
2023/10/24 06:08:28;;;;;;;59.60;12.95;;;;;;;17.08;79.64;100074.91;5118903;28;20039;-65
2023/10/24 06:10:56;;;;;;;27.13;10.13;;;;;;;17.21;79.67;100071.47;5118201;28;20039;-66
2023/10/24 06:13:22;;;;;;;19.33;8.23;;;;;;;17.30;79.09;100070.28;5118612;28;20352;-65
2023/10/24 06:15:47;;;;;;;16.88;8.18;;;;;;;17.43;78.54;100069.53;5118564;28;20036;-66
2023/10/24 06:18:13;;;;;;;15.75;7.43;;;;;;;17.63;78.31;100072.31;5117995;28;20032;-66
2023/10/24 06:20:38;;;;;;;22.27;8.45;;;;;;;17.72;77.44;100069.31;5118156;28;20035;-66
2023/10/24 06:23:05;;;;;;;16.58;7.70;;;;;;;17.74;77.09;100072.63;5117613;28;20034;-65
2023/10/24 06:25:39;;;;;;;17.08;7.50;;;;;;;17.88;77.15;100069.97;5116442;28;20036;-65
2023/10/24 06:28:05;;;;;;;18.20;7.30;;;;;;;18.03;76.69;100070.66;5116830;28;20079;-63
2023/10/24 06:30:32;;;;;;;19.52;7.07;;;;;;;18.16;76.78;100063.47;5116285;27;20036;-63
2023/10/24 06:32:57;;;;;;;17.25;7.47;;;;;;;18.30;76.86;100066.16;5116873;28;20024;-63
2023/10/24 06:35:23;;;;;;;19.08;6.80;;;;;;;18.43;75.63;100066.16;5116784;28;20238;-63
2023/10/24 06:37:48;;;;;;;17.55;6.57;;;;;;;18.39;75.09;100067.63;5116601;28;20369;-63
2023/10/24 06:40:14;;;;;;;19.95;8.00;;;;;;;18.59;75.77;100064.94;5116739;28;20031;-63
2023/10/24 06:42:39;;;;;;;18.25;7.70;;;;;;;18.67;74.42;100056.72;5115817;28;20023;-63
2023/10/24 06:45:06;;;;;;;15.75;7.32;;;;;;;18.79;74.47;100060.47;5118483;28;20118;-64
2023/10/24 06:47:32;;;;;;;23.25;7.55;;;;;;;18.91;74.03;100060.66;5117575;28;20024;-63
2023/10/24 06:49:57;;;;;;;15.23;7.00;;;;;;;19.03;73.78;100061.66;5117081;28;20050;-63
2023/10/24 06:52:23;;;;;;;19.58;7.50;;;;;;;19.15;73.49;100054.63;5117555;28;20030;-64
2023/10/24 06:54:48;;;;;;;18.40;7.85;;;;;;;19.26;73.25;100058.50;5116775;28;20288;-64
2023/10/24 06:57:14;;;;;;;17.67;6.90;;;;;;;19.30;72.09;100057.06;5116949;28;20085;-64
2023/10/24 06:59:39;;;;;;;17.35;6.85;;;;;;;19.30;72.04;100055.19;5116237;28;20039;-64
2023/10/24 07:02:05;;;;;;;16.88;7.75;;;;;;;19.41;71.35;100054.53;5117498;28;20056;-64
2023/10/24 07:04:30;;;;;;;17.15;7.22;;;;;;;19.50;71.17;100051.63;5117109;28;20036;-64
2023/10/24 07:06:56;;;;;;;25.02;7.97;;;;;;;19.57;70.78;100053.28;5117289;28;20094;-65
2023/10/24 07:09:21;;;;;;;23.85;8.98;;;;;;;19.69;70.72;100051.56;5117170;28;20712;-64
2023/10/24 07:11:46;;;;;;;18.38;8.32;;;;;;;19.93;70.10;100046.50;5116679;28;20343;-63
2023/10/24 07:14:12;;;;;;;15.68;6.40;;;;;;;20.08;69.45;100036.28;5116343;28;20313;-64
2023/10/24 07:16:37;;;;;;;20.45;6.93;;;;;;;20.20;70.27;100034.56;5116710;28;20042;-63
2023/10/24 07:19:03;;;;;;;17.10;6.63;;;;;;;20.27;69.19;100032.63;5116545;28;20035;-62
2023/10/24 07:21:28;;;;;;;18.08;7.20;;;;;;;20.43;68.59;100036.69;5116365;28;20027;-63
2023/10/24 07:23:55;;;;;;;17.65;6.25;;;;;;;20.53;68.50;100030.81;5115637;28;20233;-64
2023/10/24 07:26:20;;;;;;;17.52;6.32;;;;;;;20.59;66.67;100030.75;5117493;28;20028;-64
2023/10/24 07:28:46;;;;;;;13.75;6.15;;;;;;;20.66;66.60;100031.53;5116346;27;20202;-64
2023/10/24 07:31:11;;;;;;;15.25;6.00;;;;;;;20.70;66.49;100029.22;5116289;28;20035;-64
2023/10/24 07:33:37;;;;;;;12.95;5.95;;;;;;;20.71;66.44;100029.00;5115615;28;20028;-62
2023/10/24 07:36:04;;;;;;;12.77;6.10;;;;;;;20.67;64.90;100017.03;5117130;28;20054;-64
2023/10/24 07:38:29;;;;;;;17.25;5.82;;;;;;;20.82;65.68;100024.78;5116289;28;20034;-63
2023/10/24 07:40:55;;;;;;;14.85;5.72;;;;;;;20.95;65.58;100023.81;5116553;28;20031;-63
2023/10/24 07:43:20;;;;;;;11.63;5.47;;;;;;;21.04;64.43;100017.94;5116141;28;20348;-64
2023/10/24 07:45:50;;;;;;;15.68;5.93;;;;;;;21.06;65.17;100016.88;5116626;28;20035;-63
2023/10/24 07:48:15;;;;;;;13.45;5.53;;;;;;;21.12;63.45;100011.44;5115887;27;20156;-64
2023/10/24 07:50:50;;;;;;;14.43;5.47;;;;;;;21.19;64.19;100006.78;5116079;28;20035;-63
2023/10/24 07:53:16;;;;;;;18.13;5.45;;;;;;;21.28;63.22;99999.25;5116087;27;20348;-64
2023/10/24 07:55:41;;;;;;;18.33;6.72;;;;;;;21.42;62.38;100010.69;5117037;28;20051;-63
2023/10/24 07:58:08;;;;;;;17.63;5.97;;;;;;;21.49;61.67;99997.97;5116942;28;20093;-64
2023/10/24 08:00:34;;;;;;;13.43;5.20;;;;;;;21.59;61.25;99995.53;5115740;28;20031;-63
2023/10/24 08:02:59;;;;;;;16.23;5.70;;;;;;;21.66;62.29;99994.41;5116290;28;20198;-64
2023/10/24 08:05:25;;;;;;;12.82;5.57;;;;;;;21.65;61.60;99976.59;5116491;28;20042;-63
2023/10/24 08:07:50;;;;;;;19.45;7.53;;;;;;;21.71;60.52;99979.44;5116429;28;20367;-64
2023/10/24 08:10:16;;;;;;;11.43;5.38;;;;;;;21.76;60.11;99976.88;5114637;28;20035;-64
2023/10/24 08:12:41;;;;;;;21.67;5.90;;;;;;;21.89;59.62;99976.72;5114904;28;20023;-64
2023/10/24 08:15:08;;;;;;;16.48;5.40;;;;;;;22.02;58.38;99976.50;5115267;28;20333;-64
2023/10/24 08:17:33;;;;;;;22.50;5.75;;;;;;;22.13;58.64;99966.81;5114983;28;20296;-63
2023/10/24 08:19:58;;;;;;;13.77;5.65;;;;;;;22.24;56.63;99966.03;5114973;28;20035;-64
2023/10/24 08:22:24;;;;;;;12.75;5.28;;;;;;;22.35;57.30;99969.78;5115903;27;20242;-64
2023/10/24 08:24:49;;;;;;;16.27;5.63;;;;;;;22.39;56.60;99966.38;5115163;28;20031;-63
2023/10/24 08:27:15;;;;;;;12.43;5.43;;;;;;;22.39;56.09;99955.59;5114820;28;20027;-64
2023/10/24 08:29:40;;;;;;;10.18;4.10;;;;;;;22.29;55.47;99958.06;5114716;28;20036;-64
2023/10/24 08:32:07;;;;;;;12.13;5.00;;;;;;;22.42;55.87;99951.59;5114865;28;20092;-63
2023/10/24 08:34:36;;;;;;;10.50;4.78;;;;;;;22.45;54.25;99948.44;5114510;27;20063;-64
2023/10/24 08:37:02;;;;;;;10.88;4.10;;;;;;;22.42;55.56;99954.31;5114079;28;20043;-64
2023/10/24 08:39:27;;;;;;;15.05;4.57;;;;;;;22.46;53.30;99950.09;5114327;28;20036;-64
2023/10/24 08:41:56;;;;;;;13.93;5.18;;;;;;;22.45;54.60;99949.25;5113714;28;20040;-63
2023/10/24 08:44:24;;;;;;;13.15;4.82;;;;;;;22.53;54.15;99948.09;5112572;28;20031;-63
2023/10/24 08:46:50;;;;;;;12.60;4.80;;;;;;;22.57;54.10;99954.66;5114802;28;20321;-63
2023/10/24 08:49:17;;;;;;;13.55;4.85;;;;;;;22.67;54.52;99945.97;5115770;28;20098;-63
2023/10/24 08:51:44;;;;;;;13.88;4.50;;;;;;;22.70;53.09;99946.31;5112586;28;20287;-64
2023/10/24 08:54:09;;;;;;;15.30;4.80;;;;;;;22.63;52.67;99951.00;5114104;28;20031;-64
2023/10/24 08:56:37;;;;;;;12.70;5.30;;;;;;;22.63;53.39;99945.63;5115259;28;20039;-64
2023/10/24 08:59:05;;;;;;;13.35;4.65;;;;;;;22.65;52.81;99954.31;5114453;28;20076;-64
2023/10/24 09:01:32;;;;;;;7.90;4.15;;;;;;;22.78;52.54;99950.53;5114131;28;20281;-65
2023/10/24 09:03:58;;;;;;;14.57;4.75;;;;;;;22.84;53.24;99950.44;5114103;28;20094;-65
2023/10/24 09:06:24;;;;;;;14.80;4.00;;;;;;;22.80;51.90;99940.34;5114250;28;20027;-65
2023/10/24 09:08:49;;;;;;;12.38;4.30;;;;;;;22.78;51.98;99939.72;5114278;28;20058;-65
2023/10/24 09:11:16;;;;;;;13.75;4.95;;;;;;;22.85;50.57;99935.88;5113596;28;20341;-65
2023/10/24 09:13:41;;;;;;;11.65;4.50;;;;;;;22.88;51.94;99931.88;5114217;28;20028;-66
2023/10/24 09:16:08;;;;;;;13.20;6.10;;;;;;;22.93;52.23;99926.63;5113657;28;20043;-65
2023/10/24 09:18:36;;;;;;;13.32;4.43;;;;;;;22.95;51.64;99926.38;5113450;28;20031;-65
2023/10/24 09:21:02;;;;;;;10.05;4.72;;;;;;;22.98;51.98;99934.00;5115448;28;20153;-65
2023/10/24 09:23:28;;;;;;;14.73;4.95;;;;;;;23.02;51.02;99914.38;5114703;28;20349;-65
2023/10/24 09:25:53;;;;;;;13.48;4.93;;;;;;;23.03;51.36;99916.03;5115515;28;20039;-65
2023/10/24 09:28:21;;;;;;;15.63;6.07;;;;;;;23.07;51.42;99917.19;5114786;28;20039;-65
2023/10/24 09:30:47;;;;;;;10.95;4.82;;;;;;;23.14;50.50;99904.38;5116025;28;20043;-65
2023/10/24 09:33:12;;;;;;;12.13;4.50;;;;;;;23.18;51.03;99904.72;5114982;28;20079;-65
2023/10/24 09:35:38;;;;;;;11.55;4.40;;;;;;;23.25;50.50;99899.97;5114621;28;20036;-65
2023/10/24 09:38:08;;;;;;;8.00;3.88;;;;;;;23.25;49.16;99890.00;5114331;28;20040;-66
2023/10/24 09:40:38;;;;;;;14.88;4.65;;;;;;;23.31;50.92;99888.22;5114447;28;20038;-63
2023/10/24 09:43:10;;;;;;;13.18;4.82;;;;;;;23.35;50.91;99883.97;5113935;28;20027;-63
2023/10/24 09:45:43;;;;;;;20.30;5.50;;;;;;;23.42;49.42;99878.41;5114431;28;20039;-63
2023/10/24 09:48:11;;;;;;;12.18;4.13;;;;;;;23.50;49.88;99878.84;5115357;28;20051;-64
2023/10/24 09:50:39;;;;;;;12.75;4.35;;;;;;;23.53;48.94;99880.22;5113892;28;20043;-63
2023/10/24 09:53:06;;;;;;;10.18;4.03;;;;;;;23.50;48.89;99865.31;5115570;28;20449;-64
2023/10/24 09:55:34;;;;;;;13.80;4.45;;;;;;;23.48;48.28;99866.63;5116983;28;20104;-63
2023/10/24 09:58:01;;;;;;;9.77;4.20;;;;;;;23.51;48.97;99861.56;5117172;28;20063;-63
2023/10/24 10:00:27;;;;;;;14.73;4.50;;;;;;;23.50;48.06;99857.22;5115971;28;20046;-63
2023/10/24 10:02:57;;;;;;;9.70;4.72;;;;;;;23.55;48.79;99851.94;5116399;28;20338;-64
2023/10/24 10:05:23;;;;;;;11.73;4.32;;;;;;;23.59;48.42;99854.13;5117189;28;20039;-63
2023/10/24 10:07:51;;;;;;;11.90;5.07;;;;;;;23.58;47.52;99839.00;5116676;28;20079;-63
2023/10/24 10:10:19;;;;;;;10.38;5.18;;;;;;;23.64;47.97;99838.81;5116623;28;20035;-63
2023/10/24 10:12:46;;;;;;;14.27;4.78;;;;;;;23.73;49.36;99829.25;5116536;28;20059;-63
2023/10/24 10:15:26;;;;;;;16.55;4.30;;;;;;;23.72;46.77;99833.00;5116313;28;20275;-63
2023/10/24 10:18:12;;;;;;;7.95;3.72;;;;;;;23.69;46.55;99830.81;5116951;28;20035;-63
2023/10/24 10:20:56;;;;;;;13.57;4.03;;;;;;;23.66;45.98;99825.06;5115092;28;20138;-63
2023/10/24 10:23:30;;;;;;;;;;;;;;;23.68;48.46;99822.94;5117313;28;20199;-63
2023/10/24 10:26:16;;;;;;;9.27;3.92;;;;;;;23.67;48.59;99818.59;5116789;28;20214;-64
2023/10/24 10:29:08;;;;;;;12.15;3.67;;;;;;;23.74;47.58;99809.25;5115870;28;20039;-63
2023/10/24 10:31:46;;;;;;;13.75;4.00;;;;;;;23.84;47.49;99814.81;5112590;28;20088;-63
2023/10/24 10:34:12;;;;;;;12.45;5.45;;;;;;;23.81;48.27;99815.31;5116530;28;20321;-63
2023/10/24 10:36:39;;;;;;;13.75;4.15;;;;;;;23.83;47.82;99810.47;5119784;28;20038;-63
2023/10/24 10:39:09;;;;;;;16.13;4.85;;;;;;;23.91;47.24;99808.41;5120464;28;20457;-63
2023/10/24 10:41:36;;;;;;;11.90;5.85;;;;;;;23.85;46.49;99804.81;5120218;27;20035;-63
2023/10/24 10:44:05;;;;;;;12.00;6.07;;;;;;;23.85;46.73;99810.22;5120079;28;20041;-63
2023/10/24 10:46:32;;;;;;;12.70;4.60;;;;;;;23.84;45.81;99798.59;5120313;28;20046;-63
2023/10/24 10:49:06;;;;;;;11.77;4.03;;;;;;;23.79;47.19;99800.41;5120193;28;20032;-64
2023/10/24 10:51:36;;;;;;;9.52;3.50;;;;;;;23.76;47.35;99788.19;5119970;28;20038;-64
2023/10/24 10:54:04;;;;;;;13.63;4.47;;;;;;;23.78;46.67;99794.19;5117685;28;20099;-64
2023/10/24 10:56:32;;;;;;;14.10;4.05;;;;;;;23.85;47.20;99783.19;5116974;28;20039;-63
2023/10/24 10:59:07;;;;;;;10.73;4.93;;;;;;;23.83;46.07;99783.44;5117834;28;20032;-64
2023/10/24 11:01:59;;;;;;;10.55;4.82;;;;;;;23.82;46.89;99778.28;5116329;28;20390;-64
2023/10/24 11:04:24;;;;;;;11.18;4.43;;;;;;;23.77;46.01;99776.31;5117118;28;20343;-64
2023/10/24 11:06:55;;;;;;;12.90;3.67;;;;;;;23.79;46.80;99781.47;5118096;28;20031;-64
2023/10/24 11:09:22;;;;;;;11.60;3.55;;;;;;;23.80;43.79;99777.69;5116624;28;20049;-63
2023/10/24 11:12:07;;;;;;;13.77;3.72;;;;;;;23.91;43.57;99773.25;5117513;27;20028;-63
2023/10/24 11:14:33;;;;;;;11.18;3.25;;;;;;;23.99;42.81;99765.56;5116185;27;20318;-64
2023/10/24 11:17:00;;;;;;;7.85;3.72;;;;;;;23.99;43.54;99762.88;5116542;27;20039;-63